Time;durP1;ratioP1;P1;durP2;ratioP2;P2;SDS_P1;SDS_P2;PMS_P1;PMS_P2;Temp;Humidity;BMP_temperature;BMP_pressure;BME280_temperature;BME280_humidity;BME280_pressure;Samples;Min_cycle;Max_cycle;Signal;HPM_P1;HPM_P2
2021/10/22 00:04:10;;;;;;;14.88;1.60;;;;;;;5.94;94.88;100528.50;10278781;28;20084;-69
2021/10/22 00:09:06;;;;;;;9.05;1.13;;;;;;;5.92;94.87;100546.94;10281203;28;20045;-68
2021/10/22 00:14:06;;;;;;;13.00;1.52;;;;;;;5.94;94.37;100533.94;10280893;28;20568;-67
2021/10/22 00:19:03;;;;;;;13.25;1.92;;;;;;;5.93;94.07;100548.53;10292727;28;20114;-69
2021/10/22 00:23:59;;;;;;;11.88;1.50;;;;;;;6.01;94.71;100550.66;10282031;28;20098;-69
2021/10/22 00:28:56;;;;;;;10.68;1.92;;;;;;;6.02;94.90;100563.13;10284057;28;20049;-66
2021/10/22 00:33:53;;;;;;;15.65;1.80;;;;;;;6.01;95.82;100550.66;10279292;28;20534;-68
2021/10/22 00:38:50;;;;;;;10.02;2.15;;;;;;;5.91;97.13;100537.16;10294226;28;20139;-68
2021/10/22 00:43:47;;;;;;;13.15;1.67;;;;;;;5.88;97.66;100556.75;10300913;28;20041;-67
2021/10/22 00:48:44;;;;;;;15.35;2.03;;;;;;;5.91;97.82;100550.75;10294387;28;20045;-68
2021/10/22 00:53:41;;;;;;;17.80;3.15;;;;;;;5.83;98.29;100549.47;10288249;28;20410;-69
2021/10/22 00:58:41;;;;;;;13.45;1.80;;;;;;;5.80;98.16;100554.66;10300580;28;20045;-68
2021/10/22 01:03:38;;;;;;;10.00;1.40;;;;;;;5.84;98.58;100555.72;10294037;28;20528;-67
2021/10/22 01:08:35;;;;;;;15.02;1.80;;;;;;;5.82;97.92;100541.63;10288580;28;20779;-70
2021/10/22 01:13:31;;;;;;;10.30;1.38;;;;;;;5.83;98.25;100543.25;10285233;28;20086;-67
2021/10/22 01:18:29;;;;;;;12.38;1.10;;;;;;;5.83;97.58;100562.25;10264791;28;20049;-70
2021/10/22 01:23:26;;;;;;;12.10;1.30;;;;;;;5.82;97.83;100574.19;10283552;28;20094;-68
2021/10/22 01:28:24;;;;;;;8.00;1.30;;;;;;;5.90;97.39;100562.69;10281209;28;20076;-69
2021/10/22 01:33:23;;;;;;;10.38;1.40;;;;;;;5.88;97.49;100551.31;10297419;28;20067;-70
2021/10/22 01:38:22;;;;;;;6.72;0.90;;;;;;;5.87;97.39;100560.56;10289640;28;20045;-70
2021/10/22 01:43:19;;;;;;;10.77;1.52;;;;;;;5.85;97.06;100546.50;10304025;28;20077;-71
2021/10/22 01:48:15;;;;;;;9.25;1.00;;;;;;;5.87;97.38;100534.25;10290390;28;20045;-70
2021/10/22 01:53:16;;;;;;;7.00;1.08;;;;;;;5.90;96.94;100541.00;10279163;28;20148;-70
2021/10/22 01:58:13;;;;;;;10.20;1.08;;;;;;;5.93;96.72;100542.31;10288874;28;20052;-70
2021/10/22 02:03:09;;;;;;;116.05;8.95;;;;;;;5.87;95.42;100541.56;10279046;28;20510;-70
2021/10/22 02:08:06;;;;;;;8.40;0.90;;;;;;;5.93;96.22;100526.84;10281311;28;20469;-71
2021/10/22 02:13:02;;;;;;;7.13;0.88;;;;;;;5.92;95.86;100538.81;10280918;28;20037;-71
2021/10/22 02:17:59;;;;;;;4.63;0.90;;;;;;;5.95;94.30;100535.53;10266469;28;20081;-71
2021/10/22 02:22:55;;;;;;;10.52;0.85;;;;;;;5.98;95.19;100524.09;10253690;28;20065;-71
2021/10/22 02:27:52;;;;;;;27.25;1.77;;;;;;;5.96;95.12;100533.63;10256258;28;20040;-69
2021/10/22 02:32:49;;;;;;;8.77;0.88;;;;;;;6.02;95.17;100546.84;10275533;28;20045;-69
2021/10/22 02:37:46;;;;;;;10.52;1.15;;;;;;;6.06;94.54;100530.78;10298634;28;20044;-70
2021/10/22 02:42:43;;;;;;;8.30;1.35;;;;;;;6.02;95.37;100524.31;10291288;28;20549;-68
2021/10/22 02:47:40;;;;;;;7.18;0.75;;;;;;;6.05;95.12;100529.16;10297839;28;20048;-73
2021/10/22 02:52:37;;;;;;;8.02;1.90;;;;;;;6.08;94.29;100512.28;10288980;28;20087;-70
2021/10/22 02:57:33;;;;;;;7.32;1.13;;;;;;;6.05;94.33;100513.66;10281573;28;20178;-69
2021/10/22 03:02:30;;;;;;;9.38;0.85;;;;;;;6.06;93.64;100525.34;10298160;28;20036;-68
2021/10/22 03:07:26;;;;;;;8.85;1.17;;;;;;;6.08;93.32;100512.28;10283940;28;20063;-71
2021/10/22 03:12:23;;;;;;;5.53;0.90;;;;;;;6.08;93.98;100504.97;10290690;28;20041;-70
2021/10/22 03:17:19;;;;;;;6.95;0.75;;;;;;;6.11;93.59;100498.94;10284797;28;20453;-70
2021/10/22 03:22:16;;;;;;;7.30;0.95;;;;;;;6.09;93.31;100486.75;10291304;28;20071;-70
2021/10/22 03:27:15;;;;;;;8.13;0.82;;;;;;;6.13;93.59;100479.66;10296077;28;20079;-69
2021/10/22 03:32:11;;;;;;;6.63;1.05;;;;;;;6.18;92.12;100467.91;10294509;28;20071;-70
2021/10/22 03:37:08;;;;;;;7.70;1.63;;;;;;;6.18;91.88;100463.28;10290507;28;20041;-70
2021/10/22 03:42:04;;;;;;;13.57;1.33;;;;;;;6.25;91.15;100452.06;10280091;28;20065;-70
2021/10/22 03:47:01;;;;;;;9.27;1.17;;;;;;;6.23;90.47;100448.81;10287336;28;20044;-70
2021/10/22 03:51:57;;;;;;;10.93;1.90;;;;;;;6.24;90.87;100450.44;10284287;28;20083;-70
2021/10/22 03:56:54;;;;;;;8.90;1.80;;;;;;;6.26;90.51;100453.66;10278995;28;20048;-70
2021/10/22 04:01:50;;;;;;;8.27;1.30;;;;;;;6.24;90.34;100472.16;10288363;28;20040;-69
2021/10/22 04:06:47;;;;;;;7.20;1.33;;;;;;;6.29;88.94;100442.22;10293610;28;20127;-70
2021/10/22 04:11:44;;;;;;;9.80;1.40;;;;;;;6.29;88.58;100442.22;10298078;28;20448;-70
2021/10/22 04:16:40;;;;;;;11.05;1.77;;;;;;;6.31;88.96;100415.56;10286294;28;20759;-70
2021/10/22 04:21:37;;;;;;;13.75;2.10;;;;;;;6.29;89.02;100442.22;10289063;28;20044;-71
2021/10/22 04:26:33;;;;;;;18.50;2.00;;;;;;;6.34;88.16;100417.69;10296790;28;20045;-69
2021/10/22 04:31:30;;;;;;;11.63;1.60;;;;;;;6.36;88.13;100426.34;10303594;28;20041;-70
2021/10/22 04:36:26;;;;;;;14.93;1.80;;;;;;;6.39;87.41;100409.47;10297100;28;20102;-72
2021/10/22 04:41:23;;;;;;;15.25;1.63;;;;;;;6.43;87.79;100410.50;10287056;28;20131;-72
2021/10/22 04:46:20;;;;;;;16.67;1.90;;;;;;;6.46;87.28;100388.16;10300084;28;20048;-72
2021/10/22 04:51:16;;;;;;;11.57;1.88;;;;;;;6.47;86.71;100373.47;10301099;28;20043;-73
2021/10/22 04:56:13;;;;;;;11.57;1.70;;;;;;;6.54;85.73;100392.09;10293296;28;20836;-74
2021/10/22 05:01:09;;;;;;;9.80;1.80;;;;;;;6.57;85.92;100393.41;10295374;28;20083;-73
2021/10/22 05:06:06;;;;;;;14.63;1.48;;;;;;;6.51;85.75;100374.47;10278852;28;20041;-73
2021/10/22 05:11:03;;;;;;;14.13;2.65;;;;;;;6.48;87.15;100353.34;10289392;28;20119;-72
2021/10/22 05:15:59;;;;;;;12.85;2.15;;;;;;;6.39;86.99;100355.16;10275237;28;20120;-74
2021/10/22 05:20:56;;;;;;;11.18;1.67;;;;;;;6.38;88.97;100339.94;10291871;28;20778;-73
2021/10/22 05:25:52;;;;;;;11.82;2.03;;;;;;;6.36;88.07;100334.03;10283597;28;20037;-72
2021/10/22 05:30:49;;;;;;;13.38;1.80;;;;;;;6.37;88.49;100315.81;10284122;28;20572;-72
2021/10/22 05:35:45;;;;;;;14.02;2.05;;;;;;;6.41;88.91;100314.94;10293649;28;20044;-74
2021/10/22 05:40:42;;;;;;;11.52;1.80;;;;;;;6.36;89.52;100323.16;10291456;28;20071;-74
2021/10/22 05:45:39;;;;;;;12.40;1.73;;;;;;;6.43;89.01;100301.03;10290402;28;20064;-75
2021/10/22 05:50:39;;;;;;;12.88;2.42;;;;;;;6.41;88.74;100298.63;10296540;28;20045;-75
2021/10/22 05:55:35;;;;;;;9.85;1.73;;;;;;;6.46;88.82;100290.38;10297557;28;20045;-75
2021/10/22 06:00:32;;;;;;;18.80;1.80;;;;;;;6.47;88.31;100312.91;10284525;28;20094;-75
2021/10/22 06:05:29;;;;;;;9.18;2.22;;;;;;;6.44;88.07;100302.66;10301853;28;20041;-74
2021/10/22 06:10:26;;;;;;;13.18;1.60;;;;;;;6.48;87.50;100309.91;10292775;28;20474;-74
2021/10/22 06:15:23;;;;;;;11.35;2.20;;;;;;;6.50;87.58;100302.25;10298760;28;20051;-74
2021/10/22 06:20:32;;;;;;;11.30;1.65;;;;;;;6.53;87.70;100296.22;10284700;28;20554;-73
2021/10/22 06:25:28;;;;;;;15.55;2.20;;;;;;;6.61;87.29;100293.91;10278698;28;20059;-73
2021/10/22 06:30:25;;;;;;;13.68;2.40;;;;;;;6.63;87.14;100288.97;10281829;28;20053;-73
2021/10/22 06:35:21;;;;;;;13.90;1.83;;;;;;;6.66;86.79;100293.81;10285056;28;20048;-73
2021/10/22 06:40:18;;;;;;;12.98;1.80;;;;;;;6.74;86.31;100290.38;10280338;28;20471;-72
2021/10/22 06:45:14;;;;;;;17.80;2.25;;;;;;;6.78;86.09;100296.00;10274772;28;20136;-72
2021/10/22 06:50:11;;;;;;;11.05;1.83;;;;;;;6.80;85.73;100283.75;10277928;28;20056;-71
2021/10/22 06:55:08;;;;;;;19.10;3.20;;;;;;;6.85;85.79;100289.09;10278317;28;20119;-72
2021/10/22 07:00:06;;;;;;;13.07;1.85;;;;;;;6.92;85.72;100281.31;10278715;28;20168;-73
2021/10/22 07:05:11;;;;;;;12.10;2.28;;;;;;;7.00;84.69;100281.72;10285101;28;20036;-71
2021/10/22 07:10:08;;;;;;;13.30;1.92;;;;;;;7.07;84.50;100293.78;10277197;28;20071;-72
2021/10/22 07:15:05;;;;;;;11.85;1.60;;;;;;;7.11;84.74;100283.09;10277000;28;20049;-71
2021/10/22 07:20:02;;;;;;;10.13;1.60;;;;;;;7.14;84.66;100277.06;10290334;28;20109;-72
2021/10/22 07:24:59;;;;;;;9.80;2.05;;;;;;;7.21;84.96;100288.31;10277383;28;20047;-72
2021/10/22 07:29:55;;;;;;;11.88;1.95;;;;;;;7.22;84.74;100265.47;10288136;28;20549;-72
2021/10/22 07:34:52;;;;;;;11.10;1.60;;;;;;;7.18;86.18;100256.31;10278442;28;20041;-71
2021/10/22 07:39:49;;;;;;;13.15;1.63;;;;;;;7.14;85.90;100250.66;10257976;28;20053;-72
2021/10/22 07:44:45;;;;;;;10.43;2.25;;;;;;;7.20;85.27;100275.03;10262991;28;20130;-73
2021/10/22 07:49:46;;;;;;;11.02;1.70;;;;;;;7.22;84.90;100257.31;10261368;28;20102;-73
2021/10/22 07:54:44;;;;;;;9.48;1.58;;;;;;;7.33;84.69;100258.69;10296637;28;20053;-72
2021/10/22 07:59:41;;;;;;;43.92;3.15;;;;;;;7.36;85.91;100236.31;10301935;28;20040;-72
2021/10/22 08:04:37;;;;;;;11.88;1.65;;;;;;;7.29;88.13;100273.22;10296265;28;20160;-72
2021/10/22 08:09:34;;;;;;;13.73;1.98;;;;;;;7.22;88.72;100264.63;10294084;28;20044;-72
2021/10/22 08:14:30;;;;;;;16.63;2.30;;;;;;;7.12;92.08;100262.97;10282935;28;20090;-73
2021/10/22 08:19:27;;;;;;;12.68;2.33;;;;;;;7.01;91.24;100261.56;10301923;28;20056;-72
2021/10/22 08:24:23;;;;;;;13.88;2.30;;;;;;;7.10;92.27;100265.16;10288343;28;20538;-72
2021/10/22 08:29:20;;;;;;;8.48;1.55;;;;;;;7.16;90.84;100269.41;10297917;28;20072;-72
2021/10/22 08:34:16;;;;;;;13.80;1.65;;;;;;;7.25;90.81;100278.44;10291481;28;20037;-72
2021/10/22 08:39:13;;;;;;;15.00;1.95;;;;;;;7.32;90.32;100257.06;10290865;28;20387;-73
2021/10/22 08:44:10;;;;;;;9.50;1.98;;;;;;;7.45;90.99;100262.75;10294655;28;20083;-72
2021/10/22 08:49:11;;;;;;;12.73;1.45;;;;;;;7.51;89.24;100256.09;10280864;28;20106;-72
2021/10/22 08:54:09;;;;;;;9.60;1.35;;;;;;;7.46;88.42;100261.66;10285547;28;20041;-73
2021/10/22 08:59:06;;;;;;;16.45;2.38;;;;;;;7.37;91.60;100265.09;10287577;28;20470;-73
2021/10/22 09:04:03;;;;;;;8.32;1.70;;;;;;;7.30;92.58;100270.16;10281348;28;20036;-72
2021/10/22 09:09:00;;;;;;;8.30;1.48;;;;;;;7.31;93.26;100279.94;10294344;28;20118;-72
2021/10/22 09:14:04;;;;;;;9.65;1.75;;;;;;;7.32;93.92;100257.06;10284645;28;20082;-72
2021/10/22 09:19:00;;;;;;;12.73;2.15;;;;;;;7.31;95.34;100298.97;10292656;28;20040;-71
2021/10/22 09:24:16;;;;;;;15.35;1.98;;;;;;;7.24;98.52;100298.59;10288530;28;20076;-73
2021/10/22 09:29:18;;;;;;;12.00;1.83;;;;;;;7.14;100.00;100315.13;10297005;28;20464;-73
2021/10/22 09:34:33;;;;;;;10.18;1.98;;;;;;;7.03;100.00;100311.81;10284296;28;20556;-72
2021/10/22 09:39:38;;;;;;;12.00;1.55;;;;;;;7.04;100.00;100294.41;10294069;28;20095;-73
2021/10/22 09:44:38;;;;;;;9.63;1.92;;;;;;;7.03;100.00;100298.22;10300575;28;20094;-73
2021/10/22 09:50:00;;;;;;;8.15;2.20;;;;;;;7.02;100.00;100268.63;10282774;28;20493;-73
2021/10/22 09:55:12;;;;;;;18.02;2.97;;;;;;;7.09;100.00;100269.00;10284559;28;20056;-73
2021/10/22 10:00:13;;;;;;;9.35;2.25;;;;;;;7.08;100.00;100305.47;10292219;28;20040;-73
2021/10/22 10:05:12;;;;;;;11.43;2.10;;;;;;;7.04;100.00;100326.22;10283213;28;20087;-73
2021/10/22 10:10:10;;;;;;;12.57;1.85;;;;;;;7.05;100.00;100350.34;10292874;28;20048;-74
2021/10/22 10:15:09;;;;;;;9.05;1.55;;;;;;;6.97;100.00;100355.72;10279079;28;20053;-74
2021/10/22 10:20:06;;;;;;;12.70;1.50;;;;;;;7.01;100.00;100359.41;10251612;28;20085;-73
2021/10/22 10:25:06;;;;;;;8.30;2.40;;;;;;;6.95;100.00;100351.38;10250784;28;20087;-72
2021/10/22 10:30:05;;;;;;;9.48;1.33;;;;;;;7.06;100.00;100351.19;10257275;28;20091;-73
2021/10/22 10:35:09;;;;;;;7.32;1.10;;;;;;;7.11;100.00;100338.28;10295849;28;20084;-73
2021/10/22 10:40:10;;;;;;;11.85;1.23;;;;;;;7.09;100.00;100361.44;10283415;28;20075;-73
2021/10/22 10:45:08;;;;;;;7.95;1.50;;;;;;;7.12;100.00;100388.81;10287090;28;20094;-73
2021/10/22 10:50:07;;;;;;;8.70;2.72;;;;;;;7.00;100.00;100390.44;10287346;28;20534;-73
2021/10/22 10:55:26;;;;;;;10.40;1.55;;;;;;;7.01;100.00;100422.78;10286995;28;20041;-73
2021/10/22 11:00:29;;;;;;;9.13;1.98;;;;;;;7.10;100.00;100385.63;10283633;28;20049;-72
2021/10/22 11:05:48;;;;;;;10.13;0.90;;;;;;;7.09;100.00;100394.06;10283860;28;20041;-73
2021/10/22 11:11:11;;;;;;;4.38;1.23;;;;;;;7.14;100.00;100385.81;10292566;28;20407;-73
2021/10/22 11:16:44;;;;;;;3.25;0.70;;;;;;;7.25;100.00;100406.25;10286870;28;20075;-73
2021/10/22 11:21:47;;;;;;;8.57;0.88;;;;;;;7.36;100.00;100399.50;10276356;28;20191;-73
2021/10/22 11:26:52;;;;;;;5.40;1.48;;;;;;;7.50;100.00;100409.56;10271800;28;20041;-74
2021/10/22 11:31:53;;;;;;;6.30;1.00;;;;;;;7.53;100.00;100403.50;10268197;28;20499;-73
2021/10/22 11:37:09;;;;;;;7.78;1.58;;;;;;;7.60;100.00;100382.13;10290287;28;20041;-73
2021/10/22 11:42:15;;;;;;;9.80;1.63;;;;;;;7.63;100.00;100407.91;10291193;28;20459;-73
2021/10/22 11:47:12;;;;;;;19.27;6.22;;;;;;;7.60;100.00;100403.88;10290883;28;20090;-73
2021/10/22 11:52:12;;;;;;;11.00;1.02;;;;;;;7.54;100.00;100391.50;10287543;28;20538;-73
2021/10/22 11:57:12;;;;;;;6.00;0.93;;;;;;;7.48;100.00;100417.22;10277143;28;20085;-73
2021/10/22 12:02:09;;;;;;;11.10;3.38;;;;;;;7.47;100.00;100421.03;10285099;28;20146;-73
2021/10/22 12:07:07;;;;;;;16.20;5.78;;;;;;;7.23;100.00;100513.72;10262506;28;20047;-73
2021/10/22 12:12:15;;;;;;;10.07;4.70;;;;;;;6.59;98.91;100506.13;10253315;28;20041;-73
2021/10/22 12:17:26;;;;;;;27.40;12.18;;;;;;;6.31;97.91;100510.59;10266609;28;20052;-73
2021/10/22 12:22:28;;;;;;;5.72;1.60;;;;;;;6.28;99.46;100522.03;10287759;28;20487;-73
2021/10/22 12:27:29;;;;;;;6.75;1.92;;;;;;;6.43;100.00;100529.97;10290356;28;20045;-73
2021/10/22 12:32:30;;;;;;;8.00;1.23;;;;;;;6.56;100.00;100566.44;10297222;28;20709;-73
2021/10/22 12:37:38;;;;;;;16.20;2.38;;;;;;;6.63;100.00;100576.94;10284542;28;20669;-73
2021/10/22 12:42:34;;;;;;;14.68;6.03;;;;;;;6.62;100.00;100608.75;10301110;28;20032;-73
2021/10/22 12:47:38;;;;;;;10.35;2.92;;;;;;;6.60;100.00;100566.69;10303580;28;20048;-73
2021/10/22 12:52:35;;;;;;;14.27;5.38;;;;;;;6.65;100.00;100599.19;10294950;28;20075;-73
2021/10/22 12:57:31;;;;;;;40.25;15.88;;;;;;;6.66;100.00;100630.69;10294422;28;20049;-73
2021/10/22 13:02:32;;;;;;;19.58;6.35;;;;;;;6.75;100.00;100639.78;10283432;28;20855;-73
2021/10/22 13:07:38;;;;;;;13.63;3.30;;;;;;;6.94;100.00;100648.75;10296516;28;20136;-73
2021/10/22 13:24:38;;;;;;;8.55;1.13;;;;;;;7.36;100.00;100671.50;10129494;28;20560;-72
2021/10/22 13:30:00;;;;;;;7.40;1.42;;;;;;;7.99;100.00;100669.31;10267516;28;20040;-73
2021/10/22 13:35:02;;;;;;;6.97;1.67;;;;;;;8.66;100.00;100663.34;10285481;28;20248;-73
2021/10/22 13:40:18;;;;;;;23.83;10.10;;;;;;;8.42;100.00;100677.19;10279229;28;20095;-73
2021/10/22 13:45:23;;;;;;;14.95;5.95;;;;;;;8.52;98.51;100679.72;10285255;28;20045;-73
2021/10/22 13:50:19;;;;;;;14.88;5.93;;;;;;;8.26;94.77;100697.66;10253841;28;20056;-73
2021/10/22 13:55:25;;;;;;;38.70;16.27;;;;;;;8.17;96.89;100695.63;10295756;28;20045;-72
2021/10/22 14:00:36;;;;;;;18.02;7.78;;;;;;;8.08;98.49;100702.09;10303578;28;20052;-72
2021/10/22 14:05:32;;;;;;;12.75;5.68;;;;;;;8.02;95.86;100709.53;10287254;28;20132;-73
2021/10/22 14:10:33;;;;;;;6.15;1.17;;;;;;;7.93;96.43;100716.78;10291168;28;20051;-72
2021/10/22 14:31:37;;;;;;;9.07;3.20;;;;;;;6.80;95.18;100778.34;10278702;28;20033;-72
2021/10/22 14:36:37;;;;;;;4.50;1.60;;;;;;;6.80;95.14;100782.94;10285840;28;20098;-72
2021/10/22 14:41:35;;;;;;;34.58;14.70;;;;;;;6.79;95.55;100803.09;10297419;28;20502;-72
2021/10/22 14:46:47;;;;;;;19.70;11.35;;;;;;;6.78;97.84;100818.59;10285253;28;20110;-73
2021/10/22 14:56:44;;;;;;;26.75;12.07;;;;;;;6.76;97.23;100853.38;10270988;28;20086;-72
2021/10/22 15:01:43;;;;;;;22.13;10.50;;;;;;;6.78;98.10;100905.56;10277727;28;20068;-72
2021/10/22 15:06:42;;;;;;;5.15;1.20;;;;;;;6.49;96.18;100930.78;10285289;28;20040;-72
2021/10/22 15:11:39;;;;;;;3.33;0.57;;;;;;;6.31;93.36;100901.63;10297232;28;20572;-73
2021/10/22 15:16:36;;;;;;;6.80;2.85;;;;;;;6.38;92.59;100893.16;10288548;28;20036;-72
2021/10/22 15:21:33;;;;;;;9.43;2.97;;;;;;;6.36;93.21;100896.16;10285930;28;20087;-72
2021/10/22 15:26:40;;;;;;;;;;;;;;;;;;;;;
2021/10/22 15:31:51;;;;;;;10.38;4.03;;;;;;;6.33;93.92;100926.59;10291077;28;20094;-73
2021/10/22 15:37:12;;;;;;;5.22;1.63;;;;;;;6.30;92.73;100922.53;10296920;28;20139;-72
2021/10/22 15:42:08;;;;;;;5.13;1.40;;;;;;;6.24;93.29;100922.88;10300022;28;20038;-72
2021/10/22 15:47:05;;;;;;;17.52;9.27;;;;;;;6.22;93.63;100933.19;10281962;28;20135;-72
2021/10/22 15:52:17;;;;;;;7.68;2.08;;;;;;;6.13;94.61;100945.75;10289525;28;20094;-72
2021/10/22 15:57:16;;;;;;;4.32;1.60;;;;;;;6.15;95.62;100946.28;10283303;28;20072;-73
2021/10/22 16:02:27;;;;;;;8.60;1.95;;;;;;;6.15;96.08;100968.84;10246669;28;20053;-72
2021/10/22 16:08:01;;;;;;;5.53;0.73;;;;;;;6.18;96.11;100972.88;10300373;28;20048;-72
2021/10/22 16:17:59;;;;;;;7.75;1.20;;;;;;;6.23;96.60;100994.56;10289504;28;20040;-72
2021/10/22 16:22:56;;;;;;;5.95;1.15;;;;;;;6.21;96.49;101005.69;10289599;28;20529;-72
2021/10/22 16:27:55;;;;;;;6.22;1.85;;;;;;;6.15;95.45;101011.44;10290600;28;20041;-73
2021/10/22 16:38:23;;;;;;;8.43;1.55;;;;;;;6.05;93.88;101031.31;10272915;28;20045;-72
2021/10/22 16:43:20;;;;;;;12.10;1.95;;;;;;;6.05;92.78;101040.25;10273619;28;20131;-72
2021/10/22 16:48:28;;;;;;;13.57;2.50;;;;;;;6.08;91.95;101061.44;10284220;28;20049;-71
2021/10/22 16:53:30;;;;;;;11.03;1.80;;;;;;;6.06;91.81;101073.69;10284928;28;20413;-71
2021/10/22 16:58:26;;;;;;;8.98;1.35;;;;;;;6.10;92.90;101091.00;10288964;28;20231;-71
2021/10/22 17:03:25;;;;;;;9.80;1.20;;;;;;;6.05;92.37;101099.97;10283736;28;20040;-72
2021/10/22 17:08:21;;;;;;;10.43;1.90;;;;;;;6.05;92.30;101105.41;10285019;28;20168;-72
2021/10/22 17:13:18;;;;;;;11.95;4.63;;;;;;;6.03;93.19;101129.31;10291400;28;20080;-72
2021/10/22 17:18:14;;;;;;;11.60;5.28;;;;;;;6.07;92.99;101130.38;10288626;28;20391;-70
2021/10/22 17:23:11;;;;;;;10.18;2.53;;;;;;;6.06;93.05;101144.25;10307951;28;20044;-71
2021/10/22 17:28:07;;;;;;;14.60;4.18;;;;;;;6.03;92.23;101145.59;10295975;28;20041;-70
2021/10/22 17:33:04;;;;;;;25.48;9.43;;;;;;;6.07;93.39;101167.59;10268924;28;20045;-71
2021/10/22 17:38:02;;;;;;;11.00;3.70;;;;;;;6.01;91.55;101179.53;10249612;28;20100;-74
2021/10/22 17:42:58;;;;;;;9.93;2.08;;;;;;;6.00;92.03;101192.31;10263977;28;20131;-71
2021/10/22 17:47:55;;;;;;;19.60;9.15;;;;;;;6.00;91.54;101197.72;10262725;28;20041;-74
2021/10/22 17:52:54;;;;;;;6.57;1.40;;;;;;;6.01;90.96;101220.25;10276570;28;20448;-73
2021/10/22 17:57:50;;;;;;;13.25;2.75;;;;;;;6.09;91.60;101231.38;10284409;28;20482;-73
2021/10/22 18:02:47;;;;;;;11.27;2.13;;;;;;;6.04;91.05;101239.53;10293178;28;20094;-71
2021/10/22 18:07:44;;;;;;;12.80;2.55;;;;;;;5.97;93.15;101222.72;10282324;28;20178;-73
2021/10/22 18:12:41;;;;;;;11.30;2.33;;;;;;;5.98;93.28;101246.06;10282977;28;20083;-73
2021/10/22 18:17:37;;;;;;;9.05;1.65;;;;;;;6.00;94.11;101254.75;10291480;28;20661;-71
2021/10/22 18:22:36;;;;;;;5.28;1.25;;;;;;;5.98;93.42;101256.91;10285775;28;20522;-73
2021/10/22 18:27:34;;;;;;;11.00;1.73;;;;;;;5.90;93.55;101258.25;10294068;28;20079;-73
2021/10/22 18:32:32;;;;;;;17.13;2.10;;;;;;;5.90;93.86;101265.59;10292521;28;20499;-73
2021/10/22 18:37:28;;;;;;;10.10;1.85;;;;;;;5.94;93.67;101268.56;10284050;28;20568;-73
2021/10/22 18:42:25;;;;;;;12.77;2.33;;;;;;;5.94;94.08;101282.13;10287611;28;20053;-73
2021/10/22 18:47:22;;;;;;;14.95;1.70;;;;;;;5.96;94.05;101297.09;10281698;28;20083;-73
2021/10/22 18:52:18;;;;;;;9.68;2.10;;;;;;;5.97;94.14;101309.59;10288035;28;20044;-73
2021/10/22 18:57:15;;;;;;;12.65;2.10;;;;;;;5.94;93.60;101315.56;10294787;28;20049;-73
2021/10/22 19:02:14;;;;;;;13.10;1.80;;;;;;;5.95;92.40;101314.47;10285344;28;20048;-73
2021/10/22 19:07:10;;;;;;;12.27;1.70;;;;;;;5.93;92.75;101308.47;10289771;28;20567;-72
2021/10/22 19:12:07;;;;;;;12.07;2.10;;;;;;;5.94;93.39;101304.72;10292890;28;20103;-72
2021/10/22 19:17:03;;;;;;;12.40;2.05;;;;;;;5.94;93.72;101315.56;10283830;28;20538;-72
2021/10/22 19:22:00;;;;;;;10.20;2.30;;;;;;;5.95;93.41;101322.59;10264427;28;20081;-72
2021/10/22 19:26:56;;;;;;;11.73;2.65;;;;;;;5.94;93.25;101318.28;10269720;28;20045;-72
2021/10/22 19:31:53;;;;;;;15.52;4.32;;;;;;;5.91;92.71;101337.78;10272807;28;20048;-71
2021/10/22 19:36:49;;;;;;;16.20;2.40;;;;;;;5.93;92.71;101340.22;10269422;28;20041;-71
2021/10/22 19:41:46;;;;;;;14.55;1.90;;;;;;;5.95;91.91;101357.91;10275669;28;20041;-73
2021/10/22 19:46:45;;;;;;;18.13;1.70;;;;;;;5.94;90.43;101369.84;10269495;28;20183;-72
2021/10/22 19:51:42;;;;;;;11.75;1.98;;;;;;;5.99;89.09;101377.19;10269473;28;20088;-72
2021/10/22 19:56:39;;;;;;;8.30;1.55;;;;;;;5.94;89.17;101380.72;10285683;28;20089;-72
2021/10/22 20:01:35;;;;;;;7.10;1.73;;;;;;;5.93;89.57;101383.66;10295569;28;20122;-72
2021/10/22 20:06:32;;;;;;;12.68;1.92;;;;;;;5.97;89.64;101401.88;10286560;28;20052;-72
2021/10/22 20:11:30;;;;;;;11.05;1.80;;;;;;;5.97;90.50;101414.63;10305677;28;20040;-71
2021/10/22 20:16:27;;;;;;;7.85;1.33;;;;;;;5.97;90.88;101418.16;10283087;28;20052;-73
2021/10/22 20:21:24;;;;;;;10.60;1.40;;;;;;;6.01;90.83;101424.69;10262808;28;20514;-72
2021/10/22 20:26:23;;;;;;;7.50;1.20;;;;;;;5.99;90.14;101421.44;10276346;28;20507;-72
2021/10/22 20:31:20;;;;;;;10.45;1.55;;;;;;;6.00;90.52;101427.66;10269866;28;20418;-72
2021/10/22 20:36:17;;;;;;;11.00;1.23;;;;;;;5.99;90.74;101447.75;10280941;28;20548;-72
2021/10/22 20:41:14;;;;;;;9.57;1.15;;;;;;;6.02;90.91;101453.44;10289576;28;20053;-71
2021/10/22 20:46:12;;;;;;;10.75;1.63;;;;;;;6.03;91.20;101444.22;10296655;28;20044;-72
2021/10/22 20:56:37;;;;;;;9.50;1.65;;;;;;;5.97;91.58;101461.59;10291043;28;20897;-72
2021/10/22 21:01:34;;;;;;;11.57;1.75;;;;;;;5.94;91.90;101475.72;10295263;28;20075;-72
2021/10/22 21:06:31;;;;;;;10.85;1.75;;;;;;;5.88;92.43;101491.13;10294569;28;20045;-72
2021/10/22 21:11:28;;;;;;;11.55;1.80;;;;;;;5.87;92.82;101494.09;10283520;28;20072;-72
2021/10/22 21:16:24;;;;;;;8.32;1.83;;;;;;;5.88;93.08;101503.88;10293618;28;20041;-72
2021/10/22 21:21:21;;;;;;;11.35;1.13;;;;;;;5.91;93.16;101511.47;10292134;28;20044;-73
2021/10/22 21:26:21;;;;;;;8.10;1.67;;;;;;;5.92;92.78;101507.69;10294048;28;20083;-73
2021/10/22 21:31:18;;;;;;;12.15;1.55;;;;;;;5.90;93.00;101509.88;10295262;28;20079;-73
2021/10/22 21:36:16;;;;;;;11.57;1.50;;;;;;;5.91;93.05;101527.75;10291017;28;20040;-72
2021/10/22 21:41:13;;;;;;;13.02;1.98;;;;;;;5.99;93.82;101546.28;10288688;28;20495;-72
2021/10/22 21:46:10;;;;;;;12.38;1.52;;;;;;;6.00;93.65;101542.50;10288525;28;20049;-72
2021/10/22 21:51:07;;;;;;;16.20;1.70;;;;;;;6.01;93.64;101544.13;10281151;28;20049;-72
2021/10/22 21:56:05;;;;;;;14.93;1.65;;;;;;;6.02;93.06;101562.03;10284187;28;20049;-72
2021/10/22 22:01:02;;;;;;;11.38;1.50;;;;;;;6.05;93.26;101569.66;10281790;28;20048;-72
2021/10/22 22:06:01;;;;;;;11.20;1.50;;;;;;;6.06;93.60;101573.19;10287289;28;20063;-73
2021/10/22 22:10:58;;;;;;;16.63;1.70;;;;;;;6.05;93.45;101583.22;10286626;28;20068;-72
2021/10/22 22:15:54;;;;;;;9.57;2.20;;;;;;;6.02;93.73;101593.81;10297888;28;20047;-72
2021/10/22 22:20:51;;;;;;;14.60;2.20;;;;;;;5.95;93.96;101588.63;10285572;28;20450;-72
2021/10/22 22:25:48;;;;;;;18.15;1.90;;;;;;;5.82;94.58;101594.50;10279102;28;20472;-72
2021/10/22 22:30:45;;;;;;;11.13;2.47;;;;;;;5.84;94.23;101597.75;10293731;28;20464;-72
2021/10/22 22:35:42;;;;;;;14.98;2.42;;;;;;;5.83;94.14;101607.00;10281176;28;20048;-72
2021/10/22 22:40:38;;;;;;;15.52;1.60;;;;;;;5.89;94.61;101646.63;10277253;28;20041;-72
2021/10/22 22:45:35;;;;;;;14.40;2.28;;;;;;;5.92;95.55;101632.56;10289771;28;20044;-72
2021/10/22 22:50:31;;;;;;;14.60;1.75;;;;;;;5.90;96.13;101634.72;10289950;28;20118;-72
2021/10/22 22:55:28;;;;;;;10.75;1.50;;;;;;;5.82;97.06;101632.50;10282594;28;20049;-72
2021/10/22 23:00:25;;;;;;;13.50;1.90;;;;;;;5.73;97.16;101653.06;10289842;28;21106;-73
2021/10/22 23:05:22;;;;;;;17.33;1.98;;;;;;;5.66;97.91;101656.84;10286858;28;20114;-72
2021/10/22 23:10:18;;;;;;;15.27;2.63;;;;;;;5.70;97.91;101663.34;10297402;28;20052;-72
2021/10/22 23:15:14;;;;;;;8.57;1.60;;;;;;;5.69;98.32;101667.16;10279700;28;20699;-72
2021/10/22 23:20:11;;;;;;;12.02;1.70;;;;;;;5.66;98.37;101667.69;10284398;28;20098;-71
2021/10/22 23:25:08;;;;;;;13.15;2.13;;;;;;;5.71;97.82;101685.91;10283736;28;20537;-72
2021/10/22 23:30:05;;;;;;;15.65;2.10;;;;;;;5.68;97.57;101708.13;10291153;28;20044;-73
2021/10/22 23:35:01;;;;;;;14.95;1.88;;;;;;;5.70;97.82;101716.81;10244007;28;20072;-72
2021/10/22 23:39:58;;;;;;;12.38;1.65;;;;;;;5.78;97.68;101701.94;10281032;28;20449;-72
2021/10/22 23:44:54;;;;;;;12.93;1.70;;;;;;;5.86;97.43;101696.03;10277029;28;20384;-72
2021/10/22 23:49:51;;;;;;;10.80;1.90;;;;;;;5.92;96.96;101703.13;10285341;28;20072;-72